Time;durP1;ratioP1;P1;durP2;ratioP2;P2;SDS_P1;SDS_P2;PMS_P1;PMS_P2;Temp;Humidity;BMP_temperature;BMP_pressure;BME280_temperature;BME280_humidity;BME280_pressure;Samples;Min_cycle;Max_cycle;Signal;HPM_P1;HPM_P2
2024/03/12 00:00:23;;;;;;;5.22;1.85;;;;;;;;;;2047404;29;20053;-48
2024/03/12 00:01:26;;;;;;;3.45;1.60;;;;;;;;;;2047878;29;20023;-48
2024/03/12 00:02:28;;;;;;;6.20;1.75;;;;;;;;;;2048138;29;20081;-49
2024/03/12 00:03:30;;;;;;;2.72;1.67;;;;;;;;;;2042547;29;20019;-49
2024/03/12 00:04:32;;;;;;;2.90;1.50;;;;;;;;;;2049361;29;20089;-49
2024/03/12 00:05:33;;;;;;;3.47;1.92;;;;;;;;;;2048695;29;20027;-49
2024/03/12 00:06:35;;;;;;;4.07;1.63;;;;;;;;;;2048500;29;20034;-48
2024/03/12 00:07:37;;;;;;;3.15;1.73;;;;;;;;;;2048576;29;20015;-48
2024/03/12 00:08:42;;;;;;;3.70;1.60;;;;;;;;;;2048523;29;20023;-50
2024/03/12 00:09:44;;;;;;;5.72;2.20;;;;;;;;;;2049306;28;20019;-48
2024/03/12 00:10:45;;;;;;;4.65;2.00;;;;;;;;;;2048327;29;20039;-51
2024/03/12 00:11:48;;;;;;;5.10;1.80;;;;;;;;;;2048622;29;20031;-49
2024/03/12 00:12:51;;;;;;;4.30;2.10;;;;;;;;;;2049152;28;20459;-49
2024/03/12 00:13:52;;;;;;;6.50;2.60;;;;;;;;;;2049290;28;20043;-48
2024/03/12 00:14:54;;;;;;;5.75;2.33;;;;;;;;;;2048499;29;20518;-49
2024/03/12 00:15:58;;;;;;;9.82;2.22;;;;;;;;;;2048502;29;20012;-47
2024/03/12 00:16:59;;;;;;;5.70;2.10;;;;;;;;;;2048898;28;20478;-49
2024/03/12 00:18:04;;;;;;;3.88;1.98;;;;;;;;;;2048358;29;20028;-49
2024/03/12 00:19:06;;;;;;;5.07;2.00;;;;;;;;;;2048421;28;20062;-49
2024/03/12 00:20:16;;;;;;;4.57;1.98;;;;;;;;;;2049005;29;20024;-49
2024/03/12 00:21:17;;;;;;;4.72;2.05;;;;;;;;;;2048916;28;20024;-46
2024/03/12 00:22:20;;;;;;;6.25;2.42;;;;;;;;;;2049113;29;20178;-48
2024/03/12 00:23:22;;;;;;;3.92;1.88;;;;;;;;;;2049369;28;20031;-48
2024/03/12 00:24:23;;;;;;;3.55;1.88;;;;;;;;;;2048907;29;20035;-47
2024/03/12 00:25:25;;;;;;;3.33;1.73;;;;;;;;;;2049167;29;20019;-48
2024/03/12 00:26:28;;;;;;;6.60;2.30;;;;;;;;;;2048177;29;20415;-48
2024/03/12 00:27:29;;;;;;;4.18;1.27;;;;;;;;;;2048601;29;20039;-49
2024/03/12 00:28:33;;;;;;;3.53;1.50;;;;;;;;;;2049271;29;20031;-48
2024/03/12 00:29:34;;;;;;;3.67;1.40;;;;;;;;;;2049046;29;20042;-48
2024/03/12 00:30:40;;;;;;;3.10;1.17;;;;;;;;;;2048504;29;20027;-48
2024/03/12 00:31:42;;;;;;;3.63;1.10;;;;;;;;;;2048716;29;20145;-48
2024/03/12 00:32:43;;;;;;;3.65;1.40;;;;;;;;;;2049181;29;20192;-45
2024/03/12 00:33:46;;;;;;;2.85;1.38;;;;;;;;;;2048640;29;20367;-46
2024/03/12 00:34:48;;;;;;;2.45;1.40;;;;;;;;;;2048977;28;20074;-47
2024/03/12 00:35:49;;;;;;;2.85;1.23;;;;;;;;;;2048563;28;20016;-47
2024/03/12 00:36:50;;;;;;;2.70;1.17;;;;;;;;;;2045366;29;20028;-49
2024/03/12 00:37:52;;;;;;;3.10;1.00;;;;;;;;;;2049126;28;20106;-49
2024/03/12 00:38:53;;;;;;;4.20;1.20;;;;;;;;;;2048907;28;20027;-47
2024/03/12 00:39:55;;;;;;;2.83;1.30;;;;;;;;;;2048381;29;20106;-47
2024/03/12 00:40:57;;;;;;;2.92;1.15;;;;;;;;;;2048341;29;20094;-48
2024/03/12 00:41:58;;;;;;;2.65;1.23;;;;;;;;;;2048382;29;20019;-47
2024/03/12 00:43:05;;;;;;;3.45;1.02;;;;;;;;;;2048337;29;20031;-47
2024/03/12 00:44:07;;;;;;;3.17;1.13;;;;;;;;;;2049043;28;20030;-47
2024/03/12 00:45:12;;;;;;;3.20;1.33;;;;;;;;;;2048328;29;20034;-48
2024/03/12 00:46:13;;;;;;;2.15;1.10;;;;;;;;;;2040869;29;20027;-48
2024/03/12 00:47:14;;;;;;;3.03;1.30;;;;;;;;;;2047791;29;20054;-45
2024/03/12 00:48:17;;;;;;;4.40;1.50;;;;;;;;;;2048050;28;20403;-45
2024/03/12 00:49:19;;;;;;;3.53;1.35;;;;;;;;;;2049140;28;20406;-47
2024/03/12 00:50:22;;;;;;;3.80;1.30;;;;;;;;;;2049093;29;20023;-48
2024/03/12 00:51:24;;;;;;;2.78;1.13;;;;;;;;;;2048567;29;20458;-47
2024/03/12 00:52:26;;;;;;;1.67;1.00;;;;;;;;;;2048601;29;20106;-47
2024/03/12 00:53:27;;;;;;;2.55;1.40;;;;;;;;;;2049096;28;20027;-50
2024/03/12 00:54:31;;;;;;;3.33;1.38;;;;;;;;;;2048864;29;20023;-47
2024/03/12 00:55:32;;;;;;;2.58;1.30;;;;;;;;;;2048466;29;20039;-48
2024/03/12 00:56:33;;;;;;;2.20;1.20;;;;;;;;;;2040099;29;20015;-48
2024/03/12 00:57:35;;;;;;;2.05;1.02;;;;;;;;;;2048400;29;20513;-48
2024/03/12 00:58:39;;;;;;;4.07;1.40;;;;;;;;;;2048476;29;20026;-48
2024/03/12 00:59:43;;;;;;;2.33;1.23;;;;;;;;;;2040869;29;20039;-49
2024/03/12 01:00:45;;;;;;;3.28;1.40;;;;;;;;;;2048583;29;20031;-48
2024/03/12 01:01:46;;;;;;;2.70;1.08;;;;;;;;;;2049118;28;20019;-47
2024/03/12 01:02:53;;;;;;;2.72;0.93;;;;;;;;;;2048751;29;20027;-44
2024/03/12 01:03:55;;;;;;;2.53;1.02;;;;;;;;;;2048851;28;20051;-45
2024/03/12 01:04:57;;;;;;;3.40;1.17;;;;;;;;;;2048643;29;20529;-45
2024/03/12 01:05:58;;;;;;;1.95;1.10;;;;;;;;;;2048864;28;20554;-47
2024/03/12 01:06:59;;;;;;;3.38;1.40;;;;;;;;;;2048591;29;20042;-45
2024/03/12 01:08:01;;;;;;;3.92;1.50;;;;;;;;;;2048759;29;20019;-46
2024/03/12 01:09:03;;;;;;;2.67;1.50;;;;;;;;;;2048354;29;20630;-45
2024/03/12 01:10:05;;;;;;;2.72;1.27;;;;;;;;;;2048270;29;20030;-46
2024/03/12 01:11:07;;;;;;;2.95;1.30;;;;;;;;;;2041032;29;20490;-45
2024/03/12 01:12:09;;;;;;;2.25;1.02;;;;;;;;;;2046989;29;20055;-45
2024/03/12 01:13:10;;;;;;;2.45;1.20;;;;;;;;;;2048780;28;20541;-46
2024/03/12 01:14:12;;;;;;;5.18;1.35;;;;;;;;;;2048886;29;20150;-46
2024/03/12 01:15:14;;;;;;;3.00;0.90;;;;;;;;;;2048325;28;20098;-45
2024/03/12 01:16:17;;;;;;;2.53;0.98;;;;;;;;;;2048573;29;20035;-45
2024/03/12 01:17:22;;;;;;;3.90;1.10;;;;;;;;;;2048825;28;20026;-45
2024/03/12 01:18:23;;;;;;;5.95;1.63;;;;;;;;;;2048687;28;20033;-45
2024/03/12 01:19:26;;;;;;;2.97;1.23;;;;;;;;;;2048850;29;20077;-46
2024/03/12 01:20:27;;;;;;;3.03;1.35;;;;;;;;;;2048856;28;20094;-47
2024/03/12 01:21:32;;;;;;;2.75;0.90;;;;;;;;;;2048780;29;20027;-46
2024/03/12 01:22:33;;;;;;;4.60;1.15;;;;;;;;;;2048206;29;20030;-45
2024/03/12 01:23:34;;;;;;;2.45;1.30;;;;;;;;;;2048103;29;20027;-47
2024/03/12 01:24:40;;;;;;;1.58;1.17;;;;;;;;;;2047833;28;20443;-47
2024/03/12 01:25:41;;;;;;;6.22;1.70;;;;;;;;;;2048350;28;20471;-47
2024/03/12 01:26:44;;;;;;;3.70;1.20;;;;;;;;;;2047073;29;20027;-46
2024/03/12 01:27:46;;;;;;;2.20;1.25;;;;;;;;;;2044473;29;20035;-45
2024/03/12 01:28:47;;;;;;;3.00;0.98;;;;;;;;;;2047830;29;20082;-45
2024/03/12 01:29:49;;;;;;;2.03;1.25;;;;;;;;;;2048689;29;20152;-46
2024/03/12 01:30:50;;;;;;;3.95;1.70;;;;;;;;;;2048671;29;20016;-46
2024/03/12 01:31:52;;;;;;;1.80;1.20;;;;;;;;;;2048872;29;20015;-46
2024/03/12 01:32:54;;;;;;;2.17;1.13;;;;;;;;;;2048747;28;20028;-46
2024/03/12 01:33:56;;;;;;;2.75;1.00;;;;;;;;;;2048620;29;20030;-49
2024/03/12 01:34:57;;;;;;;1.95;1.15;;;;;;;;;;2048724;29;20031;-49
2024/03/12 01:36:05;;;;;;;2.90;1.27;;;;;;;;;;2048491;29;20038;-49
2024/03/12 01:37:06;;;;;;;2.70;1.27;;;;;;;;;;2048627;28;20379;-50
2024/03/12 01:38:08;;;;;;;5.50;1.35;;;;;;;;;;2048722;29;20589;-46
2024/03/12 01:39:10;;;;;;;4.05;1.10;;;;;;;;;;2048709;29;20370;-49
2024/03/12 01:40:29;;;;;;;1.98;1.10;;;;;;;;;;2048811;28;20062;-47
2024/03/12 01:41:34;;;;;;;2.20;0.85;;;;;;;;;;2048754;29;20058;-49
2024/03/12 01:42:35;;;;;;;1.55;1.10;;;;;;;;;;2048595;29;20094;-50
2024/03/12 01:43:36;;;;;;;4.72;1.40;;;;;;;;;;2048690;29;20505;-49
2024/03/12 01:44:39;;;;;;;2.13;1.30;;;;;;;;;;2048786;29;20469;-50
2024/03/12 01:45:42;;;;;;;1.50;1.05;;;;;;;;;;2048687;28;20023;-49
2024/03/12 01:46:43;;;;;;;3.35;1.50;;;;;;;;;;2047724;29;20043;-48
2024/03/12 01:47:45;;;;;;;4.53;1.30;;;;;;;;;;2048009;28;20387;-49
2024/03/12 01:48:46;;;;;;;2.15;1.20;;;;;;;;;;2050309;28;20129;-49
2024/03/12 01:49:52;;;;;;;2.35;1.25;;;;;;;;;;2050399;29;20047;-49
2024/03/12 01:50:54;;;;;;;3.15;1.25;;;;;;;;;;2049794;29;20035;-50
2024/03/12 01:51:56;;;;;;;3.00;1.27;;;;;;;;;;2049832;29;20011;-49
2024/03/12 01:52:59;;;;;;;2.88;1.52;;;;;;;;;;2050420;28;20098;-49
2024/03/12 01:54:00;;;;;;;1.98;1.30;;;;;;;;;;2050245;29;20034;-50
2024/03/12 01:55:01;;;;;;;2.10;1.23;;;;;;;;;;2049916;29;20023;-50
2024/03/12 01:56:03;;;;;;;3.22;1.40;;;;;;;;;;2050452;29;20023;-49
2024/03/12 01:57:04;;;;;;;2.58;1.40;;;;;;;;;;2049886;29;20078;-48
2024/03/12 01:58:06;;;;;;;4.45;1.25;;;;;;;;;;2045093;29;20461;-50
2024/03/12 01:59:07;;;;;;;2.40;1.38;;;;;;;;;;2049763;29;20414;-48
2024/03/12 02:00:17;;;;;;;2.10;0.90;;;;;;;;;;2049646;29;20467;-48
2024/03/12 02:01:22;;;;;;;2.28;0.98;;;;;;;;;;2050170;28;20054;-50
2024/03/12 02:02:25;;;;;;;2.83;1.10;;;;;;;;;;2050250;28;20038;-49
2024/03/12 02:03:33;;;;;;;2.38;1.08;;;;;;;;;;2050112;28;20042;-48
2024/03/12 02:04:35;;;;;;;2.85;1.48;;;;;;;;;;2049486;29;20031;-50
2024/03/12 02:05:37;;;;;;;1.98;0.90;;;;;;;;;;2048865;29;20012;-49
2024/03/12 02:06:38;;;;;;;3.88;1.58;;;;;;;;;;2049648;29;20036;-49
2024/03/12 02:07:40;;;;;;;2.55;1.10;;;;;;;;;;2049447;29;20019;-50
2024/03/12 02:08:42;;;;;;;3.22;1.23;;;;;;;;;;2050162;29;20393;-51
2024/03/12 02:09:43;;;;;;;2.13;1.02;;;;;;;;;;2050391;29;20023;-50
2024/03/12 02:10:45;;;;;;;1.65;1.20;;;;;;;;;;2050338;29;20019;-49
2024/03/12 02:11:47;;;;;;;2.17;1.20;;;;;;;;;;2050265;28;20394;-49
2024/03/12 02:12:48;;;;;;;3.20;1.00;;;;;;;;;;2050044;29;20103;-48
2024/03/12 02:13:51;;;;;;;2.50;1.20;;;;;;;;;;2049480;29;20106;-48
2024/03/12 02:14:52;;;;;;;3.05;1.00;;;;;;;;;;2049576;29;20081;-49
2024/03/12 02:15:53;;;;;;;2.15;1.20;;;;;;;;;;2050337;29;20018;-47
2024/03/12 02:16:55;;;;;;;2.28;1.13;;;;;;;;;;2049994;29;20086;-47
2024/03/12 02:17:57;;;;;;;2.80;1.00;;;;;;;;;;2050225;28;20505;-46
2024/03/12 02:18:58;;;;;;;1.80;0.73;;;;;;;;;;2049473;29;20035;-46
2024/03/12 02:20:00;;;;;;;1.88;0.93;;;;;;;;;;2041646;29;20036;-48
2024/03/12 02:21:03;;;;;;;1.95;1.05;;;;;;;;;;2049600;29;20027;-45
2024/03/12 02:22:05;;;;;;;1.83;1.10;;;;;;;;;;2049497;29;20027;-46
2024/03/12 02:23:06;;;;;;;2.72;1.17;;;;;;;;;;2049429;29;20090;-46
2024/03/12 02:24:07;;;;;;;2.47;1.15;;;;;;;;;;2049935;29;20487;-46
2024/03/12 02:25:12;;;;;;;2.38;1.00;;;;;;;;;;2049388;29;20034;-48
2024/03/12 02:26:13;;;;;;;2.67;1.10;;;;;;;;;;2041547;29;20032;-46
2024/03/12 02:27:15;;;;;;;4.55;1.55;;;;;;;;;;2050932;28;20529;-47
2024/03/12 02:28:17;;;;;;;1.90;1.10;;;;;;;;;;2053341;28;20054;-47
2024/03/12 02:29:19;;;;;;;1.55;1.13;;;;;;;;;;2049106;29;20030;-46
2024/03/12 02:30:20;;;;;;;2.88;1.42;;;;;;;;;;2049086;28;20102;-47
2024/03/12 02:31:22;;;;;;;2.33;1.35;;;;;;;;;;2057225;28;20097;-45
2024/03/12 02:32:23;;;;;;;4.45;1.45;;;;;;;;;;2049250;29;20360;-46
2024/03/12 02:33:25;;;;;;;3.08;1.50;;;;;;;;;;2041480;29;20024;-48
2024/03/12 02:34:29;;;;;;;2.10;0.98;;;;;;;;;;2049019;29;20034;-47
2024/03/12 02:35:34;;;;;;;4.07;1.30;;;;;;;;;;2049151;29;20023;-45
2024/03/12 02:36:36;;;;;;;4.00;1.00;;;;;;;;;;2041773;29;20043;-48
2024/03/12 02:37:39;;;;;;;3.13;1.23;;;;;;;;;;2049240;29;20482;-44
2024/03/12 02:38:40;;;;;;;3.10;1.27;;;;;;;;;;2049383;29;20035;-44
2024/03/12 02:39:42;;;;;;;3.58;1.30;;;;;;;;;;2044312;28;20499;-44
2024/03/12 02:40:45;;;;;;;1.73;0.90;;;;;;;;;;2041757;29;20130;-46
2024/03/12 02:41:46;;;;;;;4.18;1.10;;;;;;;;;;2042001;29;20024;-46
2024/03/12 02:42:47;;;;;;;3.53;1.10;;;;;;;;;;2049235;29;20026;-46
2024/03/12 02:43:51;;;;;;;2.42;1.13;;;;;;;;;;2055488;28;20497;-46
2024/03/12 02:44:54;;;;;;;1.98;1.15;;;;;;;;;;2053032;28;20905;-46
2024/03/12 02:45:55;;;;;;;2.10;1.00;;;;;;;;;;2049302;29;20062;-47
2024/03/12 02:46:57;;;;;;;1.42;0.93;;;;;;;;;;2049084;29;20024;-47
2024/03/12 02:47:58;;;;;;;4.43;1.13;;;;;;;;;;2049350;29;20463;-46
2024/03/12 02:48:59;;;;;;;3.00;1.38;;;;;;;;;;2049180;28;20035;-47
2024/03/12 02:50:01;;;;;;;2.33;1.00;;;;;;;;;;2049768;29;20027;-46
2024/03/12 02:51:02;;;;;;;3.13;1.27;;;;;;;;;;2049969;28;20035;-48
2024/03/12 02:52:04;;;;;;;2.03;1.27;;;;;;;;;;2050048;29;20022;-46
2024/03/12 02:53:08;;;;;;;2.08;1.13;;;;;;;;;;2049790;29;20122;-47
2024/03/12 02:54:09;;;;;;;1.35;1.02;;;;;;;;;;2049666;29;20387;-46
2024/03/12 02:55:11;;;;;;;2.67;0.88;;;;;;;;;;2049807;29;20035;-46
2024/03/12 02:56:12;;;;;;;2.55;1.00;;;;;;;;;;2049418;29;20018;-46
2024/03/12 02:57:13;;;;;;;2.03;0.95;;;;;;;;;;2049875;29;20031;-45
2024/03/12 02:58:15;;;;;;;2.97;1.10;;;;;;;;;;2048755;29;20011;-46
2024/03/12 02:59:16;;;;;;;2.65;1.15;;;;;;;;;;2042627;29;20047;-47
2024/03/12 03:00:17;;;;;;;1.83;1.13;;;;;;;;;;2048819;29;20015;-48
2024/03/12 03:01:19;;;;;;;2.17;1.10;;;;;;;;;;2049421;29;20027;-48
2024/03/12 03:02:21;;;;;;;2.35;1.10;;;;;;;;;;2048515;29;20413;-48
2024/03/12 03:03:22;;;;;;;5.60;1.38;;;;;;;;;;2048885;28;20023;-50
2024/03/12 03:04:26;;;;;;;2.55;1.00;;;;;;;;;;2048784;29;20090;-46
2024/03/12 03:05:28;;;;;;;1.58;1.00;;;;;;;;;;2048724;29;20033;-46
2024/03/12 03:06:29;;;;;;;1.08;0.85;;;;;;;;;;2049098;28;20024;-46
2024/03/12 03:07:32;;;;;;;3.95;1.15;;;;;;;;;;2049186;28;20485;-46
2024/03/12 03:08:33;;;;;;;2.05;1.10;;;;;;;;;;2049534;29;20027;-47
2024/03/12 03:09:35;;;;;;;1.85;1.13;;;;;;;;;;2049667;29;20552;-46
2024/03/12 03:10:36;;;;;;;2.83;1.05;;;;;;;;;;2049544;29;20455;-46
2024/03/12 03:11:37;;;;;;;1.88;0.90;;;;;;;;;;2049525;29;20039;-46
2024/03/12 03:12:39;;;;;;;1.85;1.10;;;;;;;;;;2049673;29;20015;-44
2024/03/12 03:13:40;;;;;;;3.65;1.20;;;;;;;;;;2049300;29;20107;-43
2024/03/12 03:14:41;;;;;;;2.08;1.20;;;;;;;;;;2049580;29;20039;-44
2024/03/12 03:15:45;;;;;;;2.65;0.90;;;;;;;;;;2049309;29;20026;-43
2024/03/12 03:16:48;;;;;;;2.85;1.30;;;;;;;;;;2049603;28;20085;-44
2024/03/12 03:17:49;;;;;;;2.63;1.52;;;;;;;;;;2048979;29;20027;-44
2024/03/12 03:18:52;;;;;;;2.85;1.45;;;;;;;;;;2048898;29;20055;-44
2024/03/12 03:19:54;;;;;;;3.28;0.90;;;;;;;;;;2049537;28;20023;-44
2024/03/12 03:20:55;;;;;;;1.88;1.10;;;;;;;;;;2049020;29;20050;-44
2024/03/12 03:21:56;;;;;;;3.08;1.20;;;;;;;;;;2049001;29;20019;-44
2024/03/12 03:22:58;;;;;;;2.08;0.95;;;;;;;;;;2049279;29;20046;-49
2024/03/12 03:23:59;;;;;;;3.50;1.88;;;;;;;;;;2049233;29;20023;-49
2024/03/12 03:25:01;;;;;;;2.60;1.30;;;;;;;;;;2049412;28;20097;-49
2024/03/12 03:26:02;;;;;;;1.52;0.75;;;;;;;;;;2049473;29;20027;-47
2024/03/12 03:27:04;;;;;;;1.75;0.88;;;;;;;;;;2049406;29;20023;-49
2024/03/12 03:28:05;;;;;;;3.17;1.20;;;;;;;;;;2049589;29;20089;-49
2024/03/12 03:29:06;;;;;;;1.58;0.88;;;;;;;;;;2048143;28;20409;-45
2024/03/12 03:30:10;;;;;;;1.95;1.08;;;;;;;;;;2041562;29;20023;-46
2024/03/12 03:31:11;;;;;;;2.97;1.00;;;;;;;;;;2048939;29;20030;-45
2024/03/12 03:32:13;;;;;;;2.40;1.02;;;;;;;;;;2048863;28;20055;-45
2024/03/12 03:33:15;;;;;;;2.17;0.93;;;;;;;;;;2045556;29;20031;-44
2024/03/12 03:34:17;;;;;;;3.42;1.05;;;;;;;;;;2041182;29;20119;-45
2024/03/12 03:35:19;;;;;;;2.33;1.10;;;;;;;;;;2048837;29;20055;-45
2024/03/12 03:36:21;;;;;;;1.55;0.90;;;;;;;;;;2045849;28;20026;-44
2024/03/12 03:37:22;;;;;;;2.85;0.93;;;;;;;;;;2041503;29;20375;-47
2024/03/12 03:38:27;;;;;;;4.72;1.20;;;;;;;;;;2041548;29;20024;-46
2024/03/12 03:39:28;;;;;;;2.53;0.95;;;;;;;;;;2048839;29;20447;-44
2024/03/12 03:40:29;;;;;;;2.63;1.17;;;;;;;;;;2048751;29;20093;-44
2024/03/12 03:41:31;;;;;;;2.03;1.00;;;;;;;;;;2050897;28;20027;-45
2024/03/12 03:42:32;;;;;;;2.95;1.25;;;;;;;;;;2049416;29;20019;-45
2024/03/12 03:43:33;;;;;;;2.17;1.10;;;;;;;;;;2048791;29;20023;-45
2024/03/12 03:44:35;;;;;;;2.90;1.20;;;;;;;;;;2048896;28;20050;-45
2024/03/12 03:45:36;;;;;;;2.63;1.23;;;;;;;;;;2049248;29;20058;-44
2024/03/12 03:46:38;;;;;;;3.28;1.65;;;;;;;;;;2048620;29;20107;-45
2024/03/12 03:47:40;;;;;;;1.95;1.45;;;;;;;;;;2048511;29;20498;-45
2024/03/12 03:48:42;;;;;;;2.60;1.08;;;;;;;;;;2048603;29;20533;-45
2024/03/12 03:49:46;;;;;;;2.22;1.23;;;;;;;;;;2049088;29;20031;-44
2024/03/12 03:50:48;;;;;;;3.15;1.33;;;;;;;;;;2049288;28;20031;-45
2024/03/12 03:51:50;;;;;;;2.08;1.30;;;;;;;;;;2048615;29;20027;-44
2024/03/12 03:52:52;;;;;;;1.60;1.02;;;;;;;;;;2048457;29;20031;-44
2024/03/12 03:53:54;;;;;;;3.75;1.10;;;;;;;;;;2049119;28;20027;-46
2024/03/12 03:54:56;;;;;;;2.75;1.08;;;;;;;;;;2049276;28;20024;-45
2024/03/12 03:55:57;;;;;;;2.15;1.10;;;;;;;;;;2049340;28;20011;-44
2024/03/12 03:56:58;;;;;;;2.45;1.38;;;;;;;;;;2049466;29;20031;-45
2024/03/12 03:58:00;;;;;;;2.72;1.20;;;;;;;;;;2049241;29;20031;-45
2024/03/12 03:59:01;;;;;;;3.45;1.50;;;;;;;;;;2049167;29;20366;-45
2024/03/12 04:00:12;;;;;;;2.33;1.10;;;;;;;;;;2048716;29;20027;-44
2024/03/12 04:01:13;;;;;;;3.35;1.38;;;;;;;;;;2049252;28;20458;-45
2024/03/12 04:02:14;;;;;;;3.05;1.10;;;;;;;;;;2048832;28;20046;-46
2024/03/12 04:03:16;;;;;;;2.47;1.25;;;;;;;;;;2048741;29;20087;-45
2024/03/12 04:04:19;;;;;;;2.08;1.00;;;;;;;;;;2048810;29;20058;-46
2024/03/12 04:05:21;;;;;;;2.55;1.10;;;;;;;;;;2048445;29;20022;-45
2024/03/12 04:06:23;;;;;;;1.77;1.17;;;;;;;;;;2048311;29;20613;-44
2024/03/12 04:07:25;;;;;;;4.28;1.25;;;;;;;;;;2049210;29;20272;-45
2024/03/12 04:08:26;;;;;;;3.33;1.27;;;;;;;;;;2049273;29;20023;-43
2024/03/12 04:09:28;;;;;;;3.45;1.42;;;;;;;;;;2049337;29;20054;-44
2024/03/12 04:10:32;;;;;;;2.38;1.00;;;;;;;;;;2049196;29;20019;-46
2024/03/12 04:11:33;;;;;;;1.60;0.95;;;;;;;;;;2049148;28;20050;-46
2024/03/12 04:12:36;;;;;;;1.42;0.90;;;;;;;;;;2048314;29;20394;-46
2024/03/12 04:13:39;;;;;;;2.58;1.10;;;;;;;;;;2048369;29;20011;-46
2024/03/12 04:14:41;;;;;;;2.88;1.10;;;;;;;;;;2048967;28;20466;-44
2024/03/12 04:15:43;;;;;;;2.40;1.00;;;;;;;;;;2048431;29;20055;-45
2024/03/12 04:16:45;;;;;;;4.53;1.05;;;;;;;;;;2040737;29;20012;-46
2024/03/12 04:17:46;;;;;;;1.77;1.08;;;;;;;;;;2048707;29;20015;-46
2024/03/12 04:18:48;;;;;;;2.30;1.50;;;;;;;;;;2048432;29;20172;-45
2024/03/12 04:19:49;;;;;;;1.75;1.25;;;;;;;;;;2040642;29;20035;-45
2024/03/12 04:20:53;;;;;;;3.08;1.17;;;;;;;;;;2040757;29;20115;-47
2024/03/12 04:21:54;;;;;;;1.90;1.20;;;;;;;;;;2049274;29;20019;-45
2024/03/12 04:22:55;;;;;;;1.73;1.00;;;;;;;;;;2049132;29;20529;-46
2024/03/12 04:23:57;;;;;;;1.75;0.95;;;;;;;;;;2048633;29;20027;-45
2024/03/12 04:24:58;;;;;;;2.65;1.20;;;;;;;;;;2048607;29;20023;-45
2024/03/12 04:25:59;;;;;;;1.80;0.95;;;;;;;;;;2048600;29;20181;-45
2024/03/12 04:27:01;;;;;;;2.95;1.33;;;;;;;;;;2048374;29;20027;-45
2024/03/12 04:28:02;;;;;;;2.88;1.10;;;;;;;;;;2048507;29;20043;-46
2024/03/12 04:29:03;;;;;;;3.63;1.15;;;;;;;;;;2048430;29;20039;-44
2024/03/12 04:30:09;;;;;;;1.85;1.08;;;;;;;;;;2055734;28;20570;-44
2024/03/12 04:31:11;;;;;;;1.77;0.93;;;;;;;;;;2054883;28;20034;-45
2024/03/12 04:32:12;;;;;;;1.98;0.98;;;;;;;;;;2049151;29;20144;-45
2024/03/12 04:33:13;;;;;;;1.92;1.13;;;;;;;;;;2049117;29;20054;-46
2024/03/12 04:34:15;;;;;;;2.90;1.30;;;;;;;;;;2049161;29;20474;-45
2024/03/12 04:35:16;;;;;;;4.35;1.15;;;;;;;;;;2049029;29;20084;-46
2024/03/12 04:36:19;;;;;;;3.08;1.10;;;;;;;;;;2055186;28;20023;-46
2024/03/12 04:37:22;;;;;;;3.60;1.15;;;;;;;;;;2050136;28;20019;-47
2024/03/12 04:38:25;;;;;;;2.28;0.85;;;;;;;;;;2040879;29;20024;-45
2024/03/12 04:39:32;;;;;;;2.83;1.10;;;;;;;;;;2040937;29;20441;-45
2024/03/12 04:40:34;;;;;;;3.70;1.08;;;;;;;;;;2052189;28;20033;-45
2024/03/12 04:41:36;;;;;;;1.90;1.02;;;;;;;;;;2048344;29;20070;-45
2024/03/12 04:42:38;;;;;;;3.67;1.20;;;;;;;;;;2040564;29;20452;-46
2024/03/12 04:43:41;;;;;;;2.33;1.08;;;;;;;;;;2048060;28;20483;-45
2024/03/12 04:44:43;;;;;;;2.50;0.93;;;;;;;;;;2047934;29;20023;-46
2024/03/12 04:45:44;;;;;;;3.20;1.40;;;;;;;;;;2047944;29;20102;-49
2024/03/12 04:46:45;;;;;;;2.95;1.15;;;;;;;;;;2048811;28;20062;-45
2024/03/12 04:47:47;;;;;;;1.67;1.10;;;;;;;;;;2049041;29;20031;-46
2024/03/12 04:48:48;;;;;;;3.72;1.63;;;;;;;;;;2047392;29;20119;-45
2024/03/12 04:49:50;;;;;;;3.55;1.17;;;;;;;;;;2048300;29;20023;-45
2024/03/12 04:50:51;;;;;;;2.97;1.15;;;;;;;;;;2047338;29;20046;-48
2024/03/12 04:51:53;;;;;;;2.88;1.23;;;;;;;;;;2047620;29;20051;-47
2024/03/12 04:52:55;;;;;;;4.55;1.83;;;;;;;;;;2048660;29;20015;-47
2024/03/12 04:53:57;;;;;;;3.13;1.20;;;;;;;;;;2048782;28;20031;-49
2024/03/12 04:54:59;;;;;;;2.25;1.10;;;;;;;;;;2048953;28;20042;-48
2024/03/12 04:56:00;;;;;;;3.08;1.40;;;;;;;;;;2048918;29;20070;-48
2024/03/12 04:57:02;;;;;;;2.08;1.00;;;;;;;;;;2048643;29;20031;-48
2024/03/12 04:58:07;;;;;;;2.42;1.17;;;;;;;;;;2048325;29;20019;-47
2024/03/12 04:59:08;;;;;;;3.30;1.35;;;;;;;;;;2048527;28;20447;-45
2024/03/12 05:00:19;;;;;;;2.53;1.35;;;;;;;;;;2047835;29;20506;-48
2024/03/12 05:01:20;;;;;;;2.15;1.10;;;;;;;;;;2047778;29;20039;-49
2024/03/12 05:02:21;;;;;;;2.10;1.00;;;;;;;;;;2048029;29;20031;-48
2024/03/12 05:03:23;;;;;;;6.28;1.50;;;;;;;;;;2048711;29;20031;-47
2024/03/12 05:04:24;;;;;;;3.22;1.35;;;;;;;;;;2047974;29;20406;-47
2024/03/12 05:05:25;;;;;;;2.22;1.13;;;;;;;;;;2048131;29;20125;-49
2024/03/12 05:06:27;;;;;;;2.95;1.45;;;;;;;;;;2047989;29;20023;-49
2024/03/12 05:07:28;;;;;;;5.05;2.03;;;;;;;;;;2040519;29;20106;-49
2024/03/12 05:08:29;;;;;;;4.18;1.30;;;;;;;;;;2048249;29;20023;-48
2024/03/12 05:09:32;;;;;;;3.75;1.45;;;;;;;;;;2048379;29;20106;-48
2024/03/12 05:10:33;;;;;;;2.25;0.90;;;;;;;;;;2048822;28;20027;-46
2024/03/12 05:11:34;;;;;;;2.08;1.00;;;;;;;;;;2048994;28;20034;-45
2024/03/12 05:12:36;;;;;;;3.80;1.42;;;;;;;;;;2048910;29;20034;-44
2024/03/12 05:13:37;;;;;;;3.88;1.13;;;;;;;;;;2048168;29;20019;-45
2024/03/12 05:14:39;;;;;;;2.10;1.17;;;;;;;;;;2047782;29;20181;-44
2024/03/12 05:15:40;;;;;;;2.13;1.00;;;;;;;;;;2047874;28;20019;-44
2024/03/12 05:16:41;;;;;;;2.03;1.02;;;;;;;;;;2047787;29;20031;-44
2024/03/12 05:17:43;;;;;;;4.43;1.58;;;;;;;;;;2048475;29;20019;-44
2024/03/12 05:18:44;;;;;;;2.30;1.40;;;;;;;;;;2040924;29;20111;-45
2024/03/12 05:19:45;;;;;;;2.15;0.93;;;;;;;;;;2041024;29;20016;-45
2024/03/12 05:20:47;;;;;;;1.75;0.95;;;;;;;;;;2044539;29;20023;-45
2024/03/12 05:21:48;;;;;;;3.67;1.10;;;;;;;;;;2048951;29;20026;-45
2024/03/12 05:22:49;;;;;;;3.33;1.55;;;;;;;;;;2048179;28;20023;-45
2024/03/12 05:23:51;;;;;;;3.92;1.27;;;;;;;;;;2047573;29;20035;-45
2024/03/12 05:24:52;;;;;;;3.25;1.45;;;;;;;;;;2048671;29;20042;-46
2024/03/12 05:25:54;;;;;;;4.78;1.17;;;;;;;;;;2048131;29;20027;-47
2024/03/12 05:26:56;;;;;;;2.90;1.60;;;;;;;;;;2048827;28;20486;-45
2024/03/12 05:27:58;;;;;;;5.20;1.70;;;;;;;;;;2048715;29;20015;-45
2024/03/12 05:28:59;;;;;;;2.67;1.58;;;;;;;;;;2048769;28;20666;-46
2024/03/12 05:30:05;;;;;;;4.28;1.77;;;;;;;;;;2047958;29;20015;-46
2024/03/12 05:31:08;;;;;;;2.53;1.60;;;;;;;;;;2048245;29;20540;-47
2024/03/12 05:32:18;;;;;;;2.05;1.27;;;;;;;;;;2048199;29;20078;-44
2024/03/12 05:33:27;;;;;;;1.98;1.25;;;;;;;;;;2048460;29;20736;-44
2024/03/12 05:34:37;;;;;;;2.35;1.05;;;;;;;;;;2040152;29;20024;-44
2024/03/12 05:35:40;;;;;;;2.17;1.27;;;;;;;;;;2041631;29;20028;-44
2024/03/12 05:36:47;;;;;;;3.35;1.48;;;;;;;;;;2048628;29;20016;-44
2024/03/12 05:38:11;;;;;;;4.28;1.60;;;;;;;;;;2048935;29;20110;-43
2024/03/12 05:39:37;;;;;;;6.43;1.75;;;;;;;;;;2048842;29;20514;-43
2024/03/12 05:40:42;;;;;;;4.35;1.83;;;;;;;;;;2048560;28;20123;-43
2024/03/12 05:48:07;;;;;;;3.70;1.33;;;;;;;;;;2048227;29;20030;-44
2024/03/12 05:48:31;;;;;;;2.35;1.35;;;;;;;;;;2048858;29;20067;-44
2024/03/12 05:49:32;;;;;;;1.85;1.00;;;;;;;;;;2048732;29;20062;-44
2024/03/12 05:50:33;;;;;;;2.95;1.35;;;;;;;;;;2048739;29;20019;-45
2024/03/12 05:51:37;;;;;;;1.77;1.38;;;;;;;;;;2048705;29;20028;-46
2024/03/12 05:52:39;;;;;;;2.40;1.35;;;;;;;;;;2048713;28;20078;-44
2024/03/12 05:53:41;;;;;;;2.42;1.17;;;;;;;;;;2047965;28;20027;-43
2024/03/12 05:54:43;;;;;;;3.85;1.52;;;;;;;;;;2040296;28;20521;-45
2024/03/12 05:55:45;;;;;;;4.30;2.08;;;;;;;;;;2032496;29;20016;-43
2024/03/12 05:56:46;;;;;;;11.57;5.30;;;;;;;;;;2040077;29;20032;-45
2024/03/12 05:57:47;;;;;;;14.15;7.57;;;;;;;;;;2040691;29;20419;-44
2024/03/12 05:58:49;;;;;;;14.27;8.30;;;;;;;;;;2048041;29;20023;-43
2024/03/12 05:59:50;;;;;;;13.20;11.63;;;;;;;;;;2048457;29;20037;-43
2024/03/12 06:00:52;;;;;;;21.83;14.15;;;;;;;;;;2048464;28;20027;-43
2024/03/12 06:01:53;;;;;;;21.75;16.63;;;;;;;;;;2045464;29;20031;-44
2024/03/12 06:02:54;;;;;;;29.00;20.50;;;;;;;;;;2040243;29;20032;-44
2024/03/12 06:03:56;;;;;;;28.70;23.65;;;;;;;;;;2048066;28;20071;-44
2024/03/12 06:04:57;;;;;;;29.73;22.00;;;;;;;;;;2047829;29;20023;-44
2024/03/12 06:05:59;;;;;;;35.47;20.63;;;;;;;;;;2040516;29;20024;-44
2024/03/12 06:07:01;;;;;;;57.38;26.67;;;;;;;;;;2040163;29;20039;-45
2024/03/12 06:08:03;;;;;;;46.72;22.88;;;;;;;;;;2040723;29;20364;-44
2024/03/12 06:09:05;;;;;;;29.35;11.13;;;;;;;;;;2040670;29;20028;-44
2024/03/12 06:10:07;;;;;;;12.10;5.53;;;;;;;;;;2040740;29;20047;-44
2024/03/12 06:11:08;;;;;;;9.02;3.88;;;;;;;;;;2040834;29;20063;-47
2024/03/12 06:12:09;;;;;;;4.53;2.60;;;;;;;;;;2040725;29;20127;-47
2024/03/12 06:13:12;;;;;;;4.10;1.80;;;;;;;;;;2048083;29;20060;-46
2024/03/12 06:14:13;;;;;;;3.97;1.80;;;;;;;;;;2048531;28;20541;-47
2024/03/12 06:15:14;;;;;;;2.83;1.42;;;;;;;;;;2048053;29;20094;-47
2024/03/12 06:16:18;;;;;;;3.70;1.50;;;;;;;;;;2048019;29;20110;-47
2024/03/12 06:17:19;;;;;;;2.83;1.60;;;;;;;;;;2048209;29;20098;-47
2024/03/12 06:18:23;;;;;;;2.53;1.48;;;;;;;;;;2048715;29;20111;-47
2024/03/12 06:19:24;;;;;;;2.70;1.38;;;;;;;;;;2048779;28;20027;-47